Time;durP1;ratioP1;P1;durP2;ratioP2;P2;SDS_P1;SDS_P2;PMS_P1;PMS_P2;Temp;Humidity;BMP_temperature;BMP_pressure;BME280_temperature;BME280_humidity;BME280_pressure;Samples;Min_cycle;Max_cycle;Signal;HPM_P1;HPM_P2
2022/11/24 00:00:07;;;;;;;;;;;;;;;5.38;59.01;100035.19;5073066;28;20398;-61
2022/11/24 00:02:32;;;;;;;;;;;;;;;5.37;59.04;100035.19;5073731;28;19929;-60
2022/11/24 00:04:57;;;;;;;;;;;;;;;5.42;58.98;100036.88;5074320;28;20894;-60
2022/11/24 00:07:22;;;;;;;;;;;;;;;5.46;59.01;100032.53;5074476;28;19971;-61
2022/11/24 00:09:48;;;;;;;;;;;;;;;5.54;58.94;100042.91;5070878;28;19924;-61
2022/11/24 00:12:13;;;;;;;;;;;;;;;5.58;58.58;100042.88;5074867;28;19925;-60
2022/11/24 00:14:38;;;;;;;;;;;;;;;5.64;58.49;100041.97;5090347;28;19927;-60
2022/11/24 00:17:03;;;;;;;;;;;;;;;5.67;58.25;100042.81;5080865;28;19924;-60
2022/11/24 00:19:28;;;;;;;;;;;;;;;5.70;58.28;100036.72;5074805;28;20403;-60
2022/11/24 00:21:54;;;;;;;;;;;;;;;5.65;58.14;100039.34;5075788;28;19947;-59
2022/11/24 00:24:19;;;;;;;;;;;;;;;5.50;58.06;100034.22;5074971;28;20331;-59
2022/11/24 00:26:44;;;;;;;;;;;;;;;5.34;58.62;100036.06;5074150;28;20351;-59
2022/11/24 00:29:10;;;;;;;;;;;;;;;5.18;59.27;100035.28;5074113;28;20015;-61
2022/11/24 00:31:36;;;;;;;;;;;;;;;5.04;59.71;100042.31;5074826;28;20437;-60
2022/11/24 00:34:08;;;;;;;;;;;;;;;5.05;59.95;100035.38;5076454;28;19927;-61
2022/11/24 00:36:34;;;;;;;;;;;;;;;5.03;60.06;100038.00;5071196;28;19990;-60
2022/11/24 00:39:02;;;;;;;;;;;;;;;5.15;59.98;100027.50;5072451;28;19927;-60
2022/11/24 00:41:28;;;;;;;;;;;;;;;5.14;59.89;100035.31;5072367;28;19920;-60
2022/11/24 00:43:53;;;;;;;;;;;;;;;5.18;59.36;100027.47;5084231;28;19969;-60
2022/11/24 00:46:19;;;;;;;;;;;;;;;5.27;59.40;100029.19;5073588;28;19927;-60
2022/11/24 00:48:45;;;;;;;;;;;;;;;5.30;59.32;100028.28;5072270;28;19977;-62
2022/11/24 00:51:11;;;;;;;;;;;;;;;5.39;59.20;100036.06;5076433;28;19928;-60
2022/11/24 00:53:36;;;;;;;;;;;;;;;5.24;59.23;100033.53;5075242;28;19920;-60
2022/11/24 00:56:05;;;;;;;;;;;;;;;5.19;59.44;100030.97;5075744;28;20074;-60
2022/11/24 00:58:31;;;;;;;;;;;;;;;5.11;59.38;100036.22;5074382;28;19924;-61
2022/11/24 01:01:00;;;;;;;;;;;;;;;5.21;59.17;100034.41;5075958;28;19977;-60
2022/11/24 01:03:26;;;;;;;;;;;;;;;5.13;59.11;100031.84;5075346;28;19927;-59
2022/11/24 01:05:51;;;;;;;;;;;;;;;5.15;59.29;100027.50;5074271;28;19924;-60
2022/11/24 01:08:16;;;;;;;;;;;;;;;5.22;59.34;100030.94;5076824;28;20026;-60
2022/11/24 01:10:41;;;;;;;;;;;;;;;5.28;59.20;100030.06;5078281;28;19924;-59
2022/11/24 01:13:07;;;;;;;;;;;;;;;5.36;59.07;100036.94;5093145;28;19931;-60
2022/11/24 01:15:33;;;;;;;;;;;;;;;5.15;59.07;100032.72;5081854;28;19925;-60
2022/11/24 01:17:59;;;;;;;;;;;;;;;5.26;59.25;100031.78;5080174;28;19920;-60
2022/11/24 01:20:24;;;;;;;;;;;;;;;5.28;59.18;100032.66;5077349;28;19933;-60
2022/11/24 01:22:49;;;;;;;;;;;;;;;5.35;58.91;100034.34;5078502;28;19959;-61
2022/11/24 01:25:14;;;;;;;;;;;;;;;5.31;58.80;100035.25;5080574;28;19924;-61
2022/11/24 01:27:40;;;;;;;;;;;;;;;5.31;59.04;100037.84;5077441;28;19933;-60
2022/11/24 01:30:05;;;;;;;;;;;;;;;5.32;59.11;100040.44;5078978;28;20352;-61
2022/11/24 01:32:32;;;;;;;;;;;;;;;5.35;59.01;100042.16;5077048;28;20325;-61
2022/11/24 01:34:57;;;;;;;;;;;;;;;5.27;59.34;100041.34;5078885;28;19947;-60
2022/11/24 01:37:22;;;;;;;;;;;;;;;5.37;59.20;100041.28;5079326;28;20291;-60
2022/11/24 01:39:48;;;;;;;;;;;;;;;5.39;59.20;100039.53;5074562;28;20295;-61
2022/11/24 01:42:13;;;;;;;;;;;;;;;5.42;58.92;100036.03;5090689;28;19932;-60
2022/11/24 01:44:41;;;;;;;;;;;;;;;5.43;59.08;100043.00;5085794;28;19928;-60
2022/11/24 01:47:19;;;;;;;;;;;;;;;5.50;58.91;100043.78;5077547;28;19921;-60
2022/11/24 01:49:50;;;;;;;;;;;;;;;5.37;59.05;100041.28;5081166;28;19924;-61
2022/11/24 01:52:42;;;;;;;;;;;;;;;5.37;59.03;100048.22;5081352;28;20062;-60
2022/11/24 01:55:10;;;;;;;;;;;;;;;5.37;59.33;100049.09;5087452;28;19927;-60
2022/11/24 01:57:41;;;;;;;;;;;;;;;5.31;59.17;100049.13;5076997;28;20386;-60
2022/11/24 02:00:08;;;;;;;;;;;;;;;5.31;59.35;100050.88;5078322;28;19989;-60
2022/11/24 02:02:34;;;;;;;;;;;;;;;5.28;59.34;100054.34;5076002;28;19921;-59
2022/11/24 02:05:02;;;;;;;;;;;;;;;5.26;59.29;100055.22;5077894;28;19931;-60
2022/11/24 02:07:28;;;;;;;;;;;;;;;5.37;59.09;100054.28;5083816;28;19920;-60
2022/11/24 02:09:54;;;;;;;;;;;;;;;5.38;59.27;100050.81;5090951;28;19947;-60
2022/11/24 02:12:21;;;;;;;;;;;;;;;5.46;59.29;100050.75;5078559;28;19963;-59
2022/11/24 02:14:46;;;;;;;;;;;;;;;5.46;58.93;100053.38;5076839;28;19935;-60
2022/11/24 02:17:12;;;;;;;;;;;;;;;5.46;58.77;100049.91;5078404;28;19924;-60
2022/11/24 02:20:06;;;;;;;;;;;;;;;5.50;58.55;100049.88;5093049;28;20453;-60
2022/11/24 02:22:40;;;;;;;;;;;;;;;5.43;58.81;100046.47;5065488;28;19927;-61
2022/11/24 02:25:12;;;;;;;;;;;;;;;5.47;58.37;100047.31;5079289;28;19921;-60
2022/11/24 02:27:37;;;;;;;;;;;;;;;5.44;58.55;100045.56;5077427;28;19927;-60
2022/11/24 02:30:03;;;;;;;;;;;;;;;5.43;58.51;100043.00;5078653;28;20007;-60
2022/11/24 02:32:30;;;;;;;;;;;;;;;5.26;58.59;100040.47;5069658;28;19930;-59
2022/11/24 02:35:00;;;;;;;;;;;;;;;5.29;58.63;100043.06;5077576;28;19970;-60
2022/11/24 02:37:25;;;;;;;;;;;;;;;5.10;59.36;100044.03;5083296;28;19959;-60
2022/11/24 02:39:50;;;;;;;;;;;;;;;5.12;59.38;100044.88;5080629;28;19967;-60
2022/11/24 02:42:15;;;;;;;;;;;;;;;5.22;59.08;100040.50;5082499;28;19931;-60
2022/11/24 02:44:44;;;;;;;;;;;;;;;5.28;59.29;100048.28;5075525;28;20364;-60
2022/11/24 02:47:11;;;;;;;;;;;;;;;5.30;59.02;100041.31;5077222;28;20355;-60
2022/11/24 02:49:36;;;;;;;;;;;;;;;5.30;59.11;100041.31;5075556;28;19931;-60
2022/11/24 02:52:02;;;;;;;;;;;;;;;5.36;58.92;100041.28;5075689;28;19917;-60
2022/11/24 02:54:27;;;;;;;;;;;;;;;5.39;58.68;100046.50;5077099;28;19931;-60
2022/11/24 02:56:52;;;;;;;;;;;;;;;5.32;58.71;100034.38;5074883;28;19925;-59
2022/11/24 02:59:18;;;;;;;;;;;;;;;5.37;58.74;100038.66;5085164;28;20429;-59
2022/11/24 03:01:43;;;;;;;;;;;;;;;5.39;58.77;100036.94;5091630;28;20386;-60
2022/11/24 03:04:08;;;;;;;;;;;;;;;5.46;58.66;100036.88;5080649;28;20287;-60
2022/11/24 03:06:33;;;;;;;;;;;;;;;5.43;58.34;100030.81;5078082;28;19924;-63
2022/11/24 03:08:59;;;;;;;;;;;;;;;5.49;58.42;100027.31;5076254;28;20299;-60
2022/11/24 03:11:24;;;;;;;;;;;;;;;5.54;58.15;100030.72;5081453;28;19981;-61
2022/11/24 03:13:49;;;;;;;;;;;;;;;5.61;58.32;100029.81;5076574;28;19924;-59
2022/11/24 03:16:14;;;;;;;;;;;;;;;5.64;58.00;100024.59;5075344;28;19971;-60
2022/11/24 03:18:40;;;;;;;;;;;;;;;5.68;57.97;100023.69;5077454;28;20340;-59
2022/11/24 03:21:05;;;;;;;;;;;;;;;5.68;57.77;100034.13;5076157;28;19920;-60
2022/11/24 03:23:30;;;;;;;;;;;;;;;5.69;57.98;100034.97;5075343;28;20607;-59
2022/11/24 03:26:05;;;;;;;;;;;;;;;5.67;58.07;100037.63;5074559;28;20015;-59
2022/11/24 03:28:30;;;;;;;;;;;;;;;5.64;58.02;100037.63;5070075;28;19986;-59
2022/11/24 03:30:55;;;;;;;;;;;;;;;5.66;57.91;100041.09;5076780;28;20394;-61
2022/11/24 03:33:21;;;;;;;;;;;;;;;5.62;57.87;100041.97;5077298;28;19924;-60
2022/11/24 03:35:46;;;;;;;;;;;;;;;5.60;58.10;100046.34;5054969;28;19931;-60
2022/11/24 03:38:11;;;;;;;;;;;;;;;5.57;58.01;100043.75;5077171;28;19932;-59
2022/11/24 03:40:36;;;;;;;;;;;;;;;5.61;57.95;100042.84;5074856;28;19960;-60
2022/11/24 03:43:02;;;;;;;;;;;;;;;5.64;58.02;100049.81;5073157;28;19997;-60
2022/11/24 03:45:27;;;;;;;;;;;;;;;5.68;57.80;100049.75;5076967;28;19924;-59
2022/11/24 03:47:52;;;;;;;;;;;;;;;5.61;58.10;100058.50;5073347;28;19928;-61
2022/11/24 03:50:18;;;;;;;;;;;;;;;5.64;58.28;100053.28;5073918;28;20371;-61
2022/11/24 03:52:43;;;;;;;;;;;;;;;5.62;58.22;100064.56;5075091;28;20015;-59
2022/11/24 03:55:08;;;;;;;;;;;;;;;5.59;58.23;100055.03;5075982;28;19939;-59
2022/11/24 03:57:33;;;;;;;;;;;;;;;5.50;58.34;100062.91;5074076;28;20453;-59
2022/11/24 03:59:59;;;;;;;;;;;;;;;5.38;58.67;100060.38;5076898;28;19925;-61
2022/11/24 04:02:24;;;;;;;;;;;;;;;5.41;59.00;100060.34;5073653;28;20166;-60
2022/11/24 04:04:51;;;;;;;;;;;;;;;5.25;59.32;100063.91;5075170;28;19928;-59
2022/11/24 04:07:16;;;;;;;;;;;;;;;5.37;59.11;100066.47;5077322;28;19936;-60
2022/11/24 04:09:42;;;;;;;;;;;;;;;5.50;58.89;100065.50;5090556;28;19924;-59
2022/11/24 04:14:51;;;;;;;;;;;;;;;5.59;58.52;100075.91;5088262;28;19935;-59
2022/11/24 04:17:17;;;;;;;;;;;;;;;5.64;58.28;100081.94;5070739;28;19920;-60
2022/11/24 04:19:42;;;;;;;;;;;;;;;5.57;58.38;100077.63;5082963;28;20420;-60
2022/11/24 04:22:07;;;;;;;;;;;;;;;5.62;58.39;100075.84;5090948;28;19943;-59
2022/11/24 04:24:33;;;;;;;;;;;;;;;5.62;58.12;100078.47;5071858;28;19940;-61
2022/11/24 04:26:58;;;;;;;;;;;;;;;5.58;58.05;100074.16;5073837;28;19943;-59
2022/11/24 04:29:23;;;;;;;;;;;;;;;5.61;57.94;100070.66;5072043;28;19950;-61
2022/11/24 04:31:48;;;;;;;;;;;;;;;5.61;58.00;100074.13;5081003;28;19924;-60
2022/11/24 04:34:14;;;;;;;;;;;;;;;5.55;58.03;100073.31;5073157;28;19916;-60
2022/11/24 04:36:39;;;;;;;;;;;;;;;5.51;58.05;100072.47;5072837;28;19925;-59
2022/11/24 04:39:05;;;;;;;;;;;;;;;5.48;58.32;100076.84;5070169;28;19921;-59
2022/11/24 04:41:30;;;;;;;;;;;;;;;5.52;58.32;100087.22;5072248;28;19928;-60
2022/11/24 04:43:55;;;;;;;;;;;;;;;5.46;58.26;100084.63;5069353;28;19924;-60
2022/11/24 04:46:20;;;;;;;;;;;;;;;5.52;58.48;100086.38;5073602;28;19970;-61
2022/11/24 04:48:46;;;;;;;;;;;;;;;5.50;58.23;100090.72;5073846;28;20426;-59
2022/11/24 04:51:12;;;;;;;;;;;;;;;5.53;58.19;100095.91;5078531;28;19955;-60
2022/11/24 04:53:37;;;;;;;;;;;;;;;5.53;58.10;100107.19;5077865;28;19920;-60
2022/11/24 04:56:03;;;;;;;;;;;;;;;5.50;58.15;100106.34;5078653;28;19970;-61
2022/11/24 04:58:28;;;;;;;;;;;;;;;5.49;58.52;100102.00;5079208;28;19929;-60
2022/11/24 05:00:54;;;;;;;;;;;;;;;5.45;58.55;100111.59;5076014;28;20015;-60
2022/11/24 05:03:19;;;;;;;;;;;;;;;5.35;58.54;100112.53;5079658;28;19932;-60
2022/11/24 05:05:44;;;;;;;;;;;;;;;5.29;58.64;100118.59;5091949;28;19936;-60
2022/11/24 05:08:09;;;;;;;;;;;;;;;5.30;58.58;100115.13;5092354;28;19929;-59
2022/11/24 05:10:35;;;;;;;;;;;;;;;5.34;58.75;100113.38;5084816;28;19921;-59
2022/11/24 05:13:01;;;;;;;;;;;;;;;5.32;58.57;100112.53;5075788;28;19967;-59
2022/11/24 05:15:26;;;;;;;;;;;;;;;5.37;58.72;100113.38;5077401;28;20044;-60
2022/11/24 05:17:52;;;;;;;;;;;;;;;5.42;58.15;100112.44;5088070;28;19935;-60
2022/11/24 05:20:17;;;;;;;;;;;;;;;5.10;58.51;100112.59;5077799;28;20011;-59
2022/11/24 05:22:42;;;;;;;;;;;;;;;4.40;60.57;100113.63;5074905;28;19974;-60
2022/11/24 05:25:08;;;;;;;;;;;;;;;3.98;61.98;100113.63;5077299;28;19967;-59
2022/11/24 05:27:33;;;;;;;;;;;;;;;4.02;62.32;100131.81;5081343;28;20395;-61
2022/11/24 05:29:58;;;;;;;;;;;;;;;3.98;62.27;100135.28;5078104;28;19928;-59
2022/11/24 05:32:24;;;;;;;;;;;;;;;4.03;62.33;100127.47;5072953;28;19924;-60
2022/11/24 05:34:49;;;;;;;;;;;;;;;3.81;62.61;100116.22;5073012;28;20391;-59
2022/11/24 05:37:14;;;;;;;;;;;;;;;4.04;62.14;100126.66;5067790;28;19939;-60
2022/11/24 05:39:40;;;;;;;;;;;;;;;4.27;62.03;100126.63;5078591;28;19932;-61
2022/11/24 05:44:49;;;;;;;;;;;;;;;4.66;60.88;100116.19;5087551;28;19935;-62
2022/11/24 05:47:15;;;;;;;;;;;;;;;4.73;60.41;100126.59;5077667;28;19932;-61
2022/11/24 05:49:40;;;;;;;;;;;;;;;4.79;60.30;100131.78;5074327;28;19928;-61
2022/11/24 05:52:05;;;;;;;;;;;;;;;4.91;60.03;100126.56;5076386;28;19931;-61
2022/11/24 05:54:30;;;;;;;;;;;;;;;4.88;59.65;100121.38;5074710;28;19932;-59
2022/11/24 05:56:56;;;;;;;;;;;;;;;4.87;59.61;100127.44;5073303;28;19927;-61
2022/11/24 05:59:21;;;;;;;;;;;;;;;4.90;60.00;100127.41;5071065;28;19994;-62
2022/11/24 06:01:46;;;;;;;;;;;;;;;4.89;59.77;100123.94;5077357;28;20434;-61
2022/11/24 06:04:11;;;;;;;;;;;;;;;4.97;59.92;100128.28;5088432;28;19954;-60
2022/11/24 06:06:37;;;;;;;;;;;;;;;4.96;59.99;100140.44;5078122;28;19952;-61
2022/11/24 06:09:02;;;;;;;;;;;;;;;5.05;59.66;100136.94;5072779;28;19925;-61
2022/11/24 06:11:28;;;;;;;;;;;;;;;5.12;59.99;100149.94;5072344;28;19924;-61
2022/11/24 06:13:53;;;;;;;;;;;;;;;5.12;59.47;100156.88;5073177;28;19947;-60
2022/11/24 06:16:18;;;;;;;;;;;;;;;5.18;59.27;100155.09;5073599;28;20368;-61
2022/11/24 06:18:44;;;;;;;;;;;;;;;5.25;59.41;100148.16;5072871;28;19925;-60
2022/11/24 06:21:09;;;;;;;;;;;;;;;5.21;59.50;100163.78;5083304;28;19929;-60
2022/11/24 06:23:34;;;;;;;;;;;;;;;5.03;59.45;100163.00;5075094;28;20412;-60
2022/11/24 06:26:00;;;;;;;;;;;;;;;4.97;59.34;100152.56;5076205;28;19920;-60
2022/11/24 06:28:25;;;;;;;;;;;;;;;4.92;59.45;100167.34;5072435;28;20036;-61
2022/11/24 06:30:51;;;;;;;;;;;;;;;4.83;59.40;100168.25;5059684;28;20015;-61
2022/11/24 06:33:16;;;;;;;;;;;;;;;4.89;59.43;100167.34;5055306;28;20023;-61
2022/11/24 06:35:41;;;;;;;;;;;;;;;4.91;59.31;100174.31;5056034;28;19924;-61
2022/11/24 06:38:07;;;;;;;;;;;;;;;4.93;59.55;100172.53;5055465;28;19916;-61
2022/11/24 06:40:32;;;;;;;;;;;;;;;4.99;59.31;100179.50;5055265;28;19936;-61
2022/11/24 06:42:57;;;;;;;;;;;;;;;5.05;59.05;100170.78;5055342;28;19920;-61
2022/11/24 06:45:22;;;;;;;;;;;;;;;4.96;59.12;100171.69;5055233;28;20417;-61
2022/11/24 06:47:48;;;;;;;;;;;;;;;5.00;59.25;100168.19;5055144;28;19921;-60
2022/11/24 06:50:13;;;;;;;;;;;;;;;4.88;59.22;100169.09;5055511;28;19925;-61
2022/11/24 06:52:38;;;;;;;;;;;;;;;5.04;59.16;100177.72;5055198;28;19917;-61
2022/11/24 06:55:04;;;;;;;;;;;;;;;5.06;59.00;100191.59;5055175;28;20399;-61
2022/11/24 06:57:30;;;;;;;;;;;;;;;5.12;58.83;100194.22;5053828;28;19956;-60
2022/11/24 06:59:57;;;;;;;;;;;;;;;5.06;58.95;100189.00;5054874;28;20372;-62
2022/11/24 07:02:22;;;;;;;;;;;;;;;5.14;59.52;100187.25;5054773;28;20395;-61
2022/11/24 07:04:47;;;;;;;;;;;;;;;5.24;58.88;100187.25;5068470;28;19921;-61
2022/11/24 07:07:12;;;;;;;;;;;;;;;5.47;58.43;100184.56;5073085;28;19950;-60
2022/11/24 07:09:38;;;;;;;;;;;;;;;5.51;58.05;100194.97;5074420;28;19974;-61
2022/11/24 07:12:04;;;;;;;;;;;;;;;5.49;57.93;100195.81;5073093;28;19925;-62
2022/11/24 07:14:30;;;;;;;;;;;;;;;5.57;57.84;100200.13;5072317;28;19960;-61
2022/11/24 07:16:55;;;;;;;;;;;;;;;5.47;57.74;100195.84;5074531;28;19951;-61
2022/11/24 07:19:20;;;;;;;;;;;;;;;5.66;57.61;100192.28;5072097;28;19936;-61
2022/11/24 07:21:45;;;;;;;;;;;;;;;5.68;57.36;100195.75;5071406;28;19928;-62
2022/11/24 07:24:11;;;;;;;;;;;;;;;5.81;57.57;100190.47;5072719;28;19921;-61
2022/11/24 07:26:36;;;;;;;;;;;;;;;5.79;57.20;100194.84;5073114;28;19955;-61
2022/11/24 07:29:02;;;;;;;;;;;;;;;5.84;56.83;100185.25;5074171;28;19916;-62
2022/11/24 07:31:27;;;;;;;;;;;;;;;5.75;56.93;100185.31;5072847;28;19923;-62
2022/11/24 07:33:53;;;;;;;;;;;;;;;5.78;57.32;100185.25;5074098;28;19920;-62
2022/11/24 07:36:19;;;;;;;;;;;;;;;5.90;56.85;100190.41;5073839;28;19952;-61
2022/11/24 07:38:44;;;;;;;;;;;;;;;5.96;56.79;100190.41;5074318;28;19952;-61
2022/11/24 07:41:11;;;;;;;;;;;;;;;6.00;56.97;100186.91;5074318;28;19959;-61
2022/11/24 07:43:36;;;;;;;;;;;;;;;5.86;56.69;100191.31;5073910;28;19962;-60
2022/11/24 07:46:03;;;;;;;;;;;;;;;5.65;57.66;100200.09;5074447;28;20342;-61
2022/11/24 07:48:28;;;;;;;;;;;;;;;5.75;57.56;100198.34;5074646;28;19923;-60
2022/11/24 07:50:53;;;;;;;;;;;;;;;5.80;57.53;100210.47;5074165;28;19924;-63
2022/11/24 07:53:19;;;;;;;;;;;;;;;5.72;57.38;100207.03;5074056;28;20439;-61
2022/11/24 07:55:51;;;;;;;;;;;;;;;5.80;57.05;100210.47;5073936;28;20447;-61
2022/11/24 07:58:16;;;;;;;;;;;;;;;5.89;56.79;100213.00;5073923;28;20433;-61
2022/11/24 08:00:42;;;;;;;;;;;;;;;5.97;56.58;100207.78;5074008;28;19917;-61
2022/11/24 08:03:07;;;;;;;;;;;;;;;6.02;56.72;100211.22;5073701;28;20057;-61
2022/11/24 08:05:32;;;;;;;;;;;;;;;6.01;56.56;100213.84;5073856;28;19916;-61
2022/11/24 08:07:58;;;;;;;;;;;;;;;6.07;56.66;100206.00;5074487;28;19932;-61
2022/11/24 08:10:23;;;;;;;;;;;;;;;6.13;56.54;100206.81;5074653;28;20268;-59
2022/11/24 08:12:48;;;;;;;;;;;;;;;6.10;56.27;100213.78;5073726;28;19968;-61
2022/11/24 08:15:14;;;;;;;;;;;;;;;6.11;56.33;100215.56;5074125;28;19920;-61
2022/11/24 08:17:39;;;;;;;;;;;;;;;6.20;56.39;100212.00;5074852;28;20376;-62
2022/11/24 08:20:05;;;;;;;;;;;;;;;6.33;56.44;100213.66;5073350;28;19931;-61
2022/11/24 08:22:30;;;;;;;;;;;;;;;6.41;56.04;100211.84;5079949;28;20394;-61
2022/11/24 08:24:55;;;;;;;;;;;;;;;6.46;55.83;100206.59;5080268;28;19958;-62
2022/11/24 08:27:20;;;;;;;;;;;;;;;6.44;55.30;100214.44;5080440;28;19970;-61
2022/11/24 08:29:46;;;;;;;;;;;;;;;6.48;55.68;100212.69;5080440;28;19950;-61
2022/11/24 08:32:11;;;;;;;;;;;;;;;6.52;55.57;100207.44;5080262;28;19924;-62
2022/11/24 08:34:37;;;;;;;;;;;;;;;6.54;55.22;100213.53;5080196;28;19920;-61
2022/11/24 08:37:03;;;;;;;;;;;;;;;6.58;55.04;100212.63;5080364;28;20264;-63
2022/11/24 08:39:28;;;;;;;;;;;;;;;6.57;55.08;100210.84;5080377;28;20019;-61
2022/11/24 08:41:54;;;;;;;;;;;;;;;6.58;55.33;100217.84;5080178;28;20040;-61
2022/11/24 08:44:19;;;;;;;;;;;;;;;6.68;55.07;100215.13;5080051;28;19928;-62
2022/11/24 08:46:45;;;;;;;;;;;;;;;6.62;54.62;100218.66;5079020;28;19964;-61
2022/11/24 08:49:12;;;;;;;;;;;;;;;6.70;54.59;100215.97;5080266;28;19927;-62
2022/11/24 08:51:37;;;;;;;;;;;;;;;6.64;54.51;100215.16;5080253;28;19925;-62
2022/11/24 08:54:02;;;;;;;;;;;;;;;6.59;54.96;100213.47;5080064;28;19946;-63
2022/11/24 08:56:29;;;;;;;;;;;;;;;6.49;55.01;100207.44;5080036;28;19927;-61
2022/11/24 08:58:55;;;;;;;;;;;;;;;6.56;55.32;100216.09;5080081;28;19931;-62
2022/11/24 09:01:20;;;;;;;;;;;;;;;6.55;54.90;100228.28;5079831;28;19917;-61
2022/11/24 09:03:46;;;;;;;;;;;;;;;6.52;55.24;100220.47;5080033;28;20356;-61
2022/11/24 09:06:12;;;;;;;;;;;;;;;6.58;55.19;100217.84;5079962;28;19920;-62
2022/11/24 09:08:37;;;;;;;;;;;;;;;6.64;54.94;100222.13;5079930;28;19961;-61
2022/11/24 09:11:13;;;;;;;;;;;;;;;6.75;54.63;100224.66;5080035;28;20009;-61
2022/11/24 09:13:38;;;;;;;;;;;;;;;6.83;54.43;100228.06;5079918;28;19946;-61
2022/11/24 09:16:05;;;;;;;;;;;;;;;6.91;54.12;100227.13;5080168;28;20317;-61
2022/11/24 09:18:30;;;;;;;;;;;;;;;6.85;53.42;100228.91;5079898;28;19917;-62
2022/11/24 09:21:09;;;;;;;;;;;;;;;6.50;54.28;100229.19;5092269;28;20303;-61
2022/11/24 09:23:34;;;;;;;;;;;;;;;6.45;54.33;100239.66;5100195;28;19916;-62
2022/11/24 09:26:07;;;;;;;;;;;;;;;6.54;54.69;100247.44;5098946;28;20027;-60
2022/11/24 09:28:32;;;;;;;;;;;;;;;6.68;54.34;100257.78;5100022;28;19923;-62
2022/11/24 09:31:01;;;;;;;;;;;;;;;6.61;54.35;100256.09;5100107;28;19920;-60
2022/11/24 09:33:27;;;;;;;;;;;;;;;6.73;54.82;100250.75;5097517;28;20325;-61
2022/11/24 09:35:52;;;;;;;;;;;;;;;6.57;55.01;100251.75;5096887;28;19916;-61
2022/11/24 09:38:17;;;;;;;;;;;;;;;6.66;55.55;100257.81;5096654;28;19920;-61
2022/11/24 09:40:43;;;;;;;;;;;;;;;6.65;55.32;100256.03;5096637;28;19927;-61
2022/11/24 09:43:15;;;;;;;;;;;;;;;6.67;55.34;100256.06;5097385;28;20287;-61
2022/11/24 09:45:40;;;;;;;;;;;;;;;6.54;55.47;100250.06;5097108;28;19970;-61
2022/11/24 09:48:11;;;;;;;;;;;;;;;6.77;55.45;100249.00;5095976;28;19951;-60
2022/11/24 09:50:37;;;;;;;;;;;;;;;6.90;55.26;100255.84;5096722;28;20023;-61
2022/11/24 09:53:25;;;;;;;;;;;;;;;6.86;54.76;100256.75;5083110;28;20007;-60
2022/11/24 09:55:54;;;;;;;;;;;;;;;6.81;55.11;100262.00;5068179;28;19974;-62
2022/11/24 09:58:41;;;;;;;;;;;;;;;6.78;54.93;100262.06;5076052;28;20371;-62
2022/11/24 10:01:11;;;;;;;;;;;;;;;6.88;54.78;100257.63;5090127;28;19920;-61
2022/11/24 10:03:40;;;;;;;;;;;;;;;6.82;54.64;100255.03;5096468;28;19916;-62
2022/11/24 10:06:14;;;;;;;;;;;;;;;6.83;54.92;100255.03;5096440;28;19916;-63
2022/11/24 10:08:52;;;;;;;;;;;;;;;6.92;55.02;100256.72;5096449;28;19916;-61
2022/11/24 10:11:26;;;;;;;;;;;;;;;6.96;54.57;100261.03;5096456;28;19916;-61
2022/11/24 10:14:02;;;;;;;;;;;;;;;7.02;54.42;100266.22;5096011;28;20359;-62
2022/11/24 10:16:49;;;;;;;;;;;;;;;7.09;54.04;100259.16;5096064;28;19923;-61
2022/11/24 10:19:18;;;;;;;;;;;;;;;7.16;53.90;100250.38;5095630;28;19927;-61
2022/11/24 10:21:49;;;;;;;;;;;;;;;7.08;53.51;100250.47;5095407;28;19916;-61
2022/11/24 10:24:32;;;;;;;;;;;;;;;6.98;53.64;100255.78;5095835;28;19969;-61
2022/11/24 10:27:02;;;;;;;;;;;;;;;6.86;54.03;100249.81;5095855;28;19963;-61
2022/11/24 10:29:40;;;;;;;;;;;;;;;6.87;54.41;100251.53;5095823;28;19924;-62
2022/11/24 10:32:12;;;;;;;;;;;;;;;6.88;53.85;100255.00;5096019;28;19978;-60
2022/11/24 10:34:39;;;;;;;;;;;;;;;6.95;54.19;100243.63;5095703;28;19920;-62
2022/11/24 10:37:07;;;;;;;;;;;;;;;7.02;54.04;100234.88;5096248;28;19955;-62
2022/11/24 10:40:07;;;;;;;;;;;;;;;7.10;53.53;100234.75;5095712;28;19927;-62
2022/11/24 10:42:36;;;;;;;;;;;;;;;7.09;53.57;100231.28;5072979;28;19923;-61
2022/11/24 10:45:12;;;;;;;;;;;;;;;7.18;53.58;100229.47;5090878;28;19924;-61
2022/11/24 10:47:38;;;;;;;;;;;;;;;7.27;53.28;100224.16;5095668;28;19920;-62
2022/11/24 10:50:09;;;;;;;;;;;;;;;7.30;53.09;100226.72;5095662;28;20003;-60
2022/11/24 10:52:42;;;;;;;;;;;;;;;7.34;52.73;100231.03;5095459;28;19961;-62
2022/11/24 10:55:08;;;;;;;;;;;;;;;7.38;52.72;100233.63;5095152;28;19969;-63
2022/11/24 10:57:37;;;;;;;;;;;;;;;7.44;52.57;100242.25;5095183;28;19924;-61
2022/11/24 11:00:18;;;;;;;;;;;;;;;7.48;52.22;100236.97;5095228;28;20003;-61
2022/11/24 11:02:44;;;;;;;;;;;;;;;7.49;51.77;100241.31;5095240;28;19916;-61
2022/11/24 11:05:21;;;;;;;;;;;;;;;7.43;52.15;100233.56;5095192;28;19942;-62
2022/11/24 11:07:46;;;;;;;;;;;;;;;7.43;52.22;100232.69;5095042;28;20280;-62
2022/11/24 11:10:20;;;;;;;;;;;;;;;7.39;52.44;100237.97;5095033;28;19927;-61
2022/11/24 11:12:45;;;;;;;;;;;;;;;7.33;52.26;100243.22;5095099;28;19939;-61
2022/11/24 11:15:25;;;;;;;;;;;;;;;7.30;52.40;100247.63;5095081;28;20403;-62
2022/11/24 11:17:53;;;;;;;;;;;;;;;7.25;52.58;100245.06;5094879;28;20283;-61
2022/11/24 11:20:24;;;;;;;;;;;;;;;7.08;52.87;100240.00;5094312;28;19923;-62
2022/11/24 11:22:50;;;;;;;;;;;;;;;7.05;53.41;100244.41;5094728;28;19955;-60
2022/11/24 11:25:18;;;;;;;;;;;;;;;7.11;53.28;100241.75;5095010;28;20393;-61
2022/11/24 11:27:43;;;;;;;;;;;;;;;7.18;52.86;100242.53;5089518;28;19928;-61
2022/11/24 11:30:15;;;;;;;;;;;;;;;7.16;52.54;100238.19;5073515;28;19921;-61
2022/11/24 11:32:52;;;;;;;;;;;;;;;7.15;52.71;100240.81;5072223;28;20621;-61
2022/11/24 11:35:18;;;;;;;;;;;;;;;7.00;53.03;100235.75;5085078;28;19924;-61
2022/11/24 11:37:44;;;;;;;;;;;;;;;6.93;53.45;100242.75;5076676;28;20276;-61
2022/11/24 11:40:17;;;;;;;;;;;;;;;6.76;53.26;100242.91;5093227;28;19923;-62
2022/11/24 11:42:54;;;;;;;;;;;;;;;6.81;53.72;100241.13;5090151;28;19920;-61
2022/11/24 11:45:21;;;;;;;;;;;;;;;6.93;53.88;100239.28;5071550;28;20391;-61
2022/11/24 11:48:03;;;;;;;;;;;;;;;6.98;53.58;100233.16;5074190;28;20129;-63
2022/11/24 11:50:48;;;;;;;;;;;;;;;7.13;53.05;100238.22;5054193;28;19924;-61
2022/11/24 11:53:29;;;;;;;;;;;;;;;7.24;52.74;100238.13;5058074;28;20283;-60
2022/11/24 11:56:00;;;;;;;;;;;;;;;7.17;52.35;100233.81;5071637;28;20380;-60
2022/11/24 11:58:25;;;;;;;;;;;;;;;7.01;52.32;100235.72;5074011;28;19923;-61
2022/11/24 12:00:56;;;;;;;;;;;;;;;6.91;53.25;100240.19;5059923;28;19917;-60
2022/11/24 12:03:40;;;;;;;;;;;;;;;6.94;53.15;100244.47;5071193;28;19924;-61
2022/11/24 12:06:19;;;;;;;;;;;;;;;6.87;53.62;100246.31;5073850;28;19920;-60
2022/11/24 12:09:19;;;;;;;;;;;;;;;6.85;53.68;100249.78;5073954;28;19916;-61
2022/11/24 12:11:52;;;;;;;;;;;;;;;6.84;54.00;100253.28;5051689;28;19940;-61
2022/11/24 12:14:40;;;;;;;;;;;;;;;6.86;53.69;100260.25;5069866;28;20349;-61
2022/11/24 12:17:17;;;;;;;;;;;;;;;6.90;53.79;100261.06;5073619;28;19924;-60
2022/11/24 12:19:48;;;;;;;;;;;;;;;6.87;54.03;100259.38;5073737;28;20054;-61
2022/11/24 12:22:14;;;;;;;;;;;;;;;6.86;54.26;100261.97;5092392;28;19962;-61
2022/11/24 12:24:39;;;;;;;;;;;;;;;6.85;54.33;100252.41;5093978;28;19956;-61
2022/11/24 12:27:08;;;;;;;;;;;;;;;7.03;53.95;100256.63;5094226;28;19969;-61
2022/11/24 12:29:40;;;;;;;;;;;;;;;7.13;53.73;100251.28;5094057;28;19923;-61
2022/11/24 12:32:28;;;;;;;;;;;;;;;7.26;53.30;100252.03;5093943;28;19916;-60
2022/11/24 12:34:53;;;;;;;;;;;;;;;7.34;52.91;100257.16;5094369;28;19916;-61
2022/11/24 12:37:37;;;;;;;;;;;;;;;7.27;53.10;100260.75;5093766;28;19916;-60
2022/11/24 12:40:41;;;;;;;;;;;;;;;7.07;53.41;100263.56;5094158;28;19916;-61
2022/11/24 12:43:12;;;;;;;;;;;;;;;6.94;53.72;100268.00;5071491;28;19970;-62
2022/11/24 12:45:55;;;;;;;;;;;;;;;7.01;53.69;100269.69;5071173;28;19966;-60
2022/11/24 12:48:34;;;;;;;;;;;;;;;6.82;53.52;100278.53;5085053;28;19989;-61
2022/11/24 12:51:00;;;;;;;;;;;;;;;6.57;54.19;100268.28;5093954;28;20015;-61
2022/11/24 12:53:31;;;;;;;;;;;;;;;6.60;54.56;100260.44;5093680;28;20006;-62
2022/11/24 12:56:04;;;;;;;;;;;;;;;6.68;54.69;100264.75;5081585;28;19920;-62